sensor_id;sensor_type;location;lat;lon;timestamp;P1;durP1;ratioP1;P2;durP2;ratioP2
22881;SDS011;11608;50.894;5.296;2023-05-21T00:01:02;24.38;;;22.52;;
22881;SDS011;11608;50.894;5.296;2023-05-21T00:03:30;23.83;;;22.13;;
22881;SDS011;11608;50.894;5.296;2023-05-21T00:05:56;24.35;;;22.45;;
22881;SDS011;11608;50.894;5.296;2023-05-21T00:08:22;24.88;;;22.92;;
22881;SDS011;11608;50.894;5.296;2023-05-21T00:10:48;24.60;;;22.90;;
22881;SDS011;11608;50.894;5.296;2023-05-21T00:13:14;24.58;;;22.77;;
22881;SDS011;11608;50.894;5.296;2023-05-21T00:15:40;25.40;;;23.50;;
22881;SDS011;11608;50.894;5.296;2023-05-21T00:18:07;25.08;;;23.27;;
22881;SDS011;11608;50.894;5.296;2023-05-21T00:20:33;25.45;;;23.33;;
22881;SDS011;11608;50.894;5.296;2023-05-21T00:22:59;26.25;;;24.33;;
22881;SDS011;11608;50.894;5.296;2023-05-21T00:25:29;25.88;;;23.75;;
22881;SDS011;11608;50.894;5.296;2023-05-21T00:27:55;26.05;;;23.95;;
22881;SDS011;11608;50.894;5.296;2023-05-21T00:30:22;25.50;;;23.60;;
22881;SDS011;11608;50.894;5.296;2023-05-21T00:32:48;25.73;;;23.80;;
22881;SDS011;11608;50.894;5.296;2023-05-21T00:35:14;25.25;;;23.35;;
22881;SDS011;11608;50.894;5.296;2023-05-21T00:37:41;26.48;;;24.48;;
22881;SDS011;11608;50.894;5.296;2023-05-21T00:40:07;27.45;;;25.35;;
22881;SDS011;11608;50.894;5.296;2023-05-21T00:42:33;26.40;;;24.50;;
22881;SDS011;11608;50.894;5.296;2023-05-21T00:45:04;26.27;;;24.30;;
22881;SDS011;11608;50.894;5.296;2023-05-21T00:47:31;27.10;;;25.10;;
22881;SDS011;11608;50.894;5.296;2023-05-21T00:49:57;25.92;;;24.08;;
22881;SDS011;11608;50.894;5.296;2023-05-21T00:52:24;27.13;;;25.13;;
22881;SDS011;11608;50.894;5.296;2023-05-21T00:54:53;27.35;;;25.35;;
22881;SDS011;11608;50.894;5.296;2023-05-21T00:57:20;27.48;;;25.33;;
22881;SDS011;11608;50.894;5.296;2023-05-21T00:59:48;27.60;;;25.48;;
22881;SDS011;11608;50.894;5.296;2023-05-21T01:02:15;27.30;;;25.10;;
22881;SDS011;11608;50.894;5.296;2023-05-21T01:04:44;28.67;;;26.33;;
22881;SDS011;11608;50.894;5.296;2023-05-21T01:07:11;28.08;;;25.77;;
22881;SDS011;11608;50.894;5.296;2023-05-21T01:09:40;27.77;;;25.77;;
22881;SDS011;11608;50.894;5.296;2023-05-21T01:12:07;28.33;;;26.20;;
22881;SDS011;11608;50.894;5.296;2023-05-21T01:14:35;29.38;;;27.17;;
22881;SDS011;11608;50.894;5.296;2023-05-21T01:17:02;27.48;;;25.40;;
22881;SDS011;11608;50.894;5.296;2023-05-21T01:19:30;28.80;;;26.40;;
22881;SDS011;11608;50.894;5.296;2023-05-21T01:21:59;28.27;;;26.17;;
22881;SDS011;11608;50.894;5.296;2023-05-21T01:24:26;29.20;;;26.85;;
22881;SDS011;11608;50.894;5.296;2023-05-21T01:26:52;27.75;;;25.65;;
22881;SDS011;11608;50.894;5.296;2023-05-21T01:29:18;28.55;;;26.52;;
22881;SDS011;11608;50.894;5.296;2023-05-21T01:34:18;28.58;;;26.17;;
22881;SDS011;11608;50.894;5.296;2023-05-21T01:36:49;27.35;;;25.17;;
22881;SDS011;11608;50.894;5.296;2023-05-21T01:39:20;27.35;;;25.25;;
22881;SDS011;11608;50.894;5.296;2023-05-21T01:41:47;27.35;;;25.33;;
22881;SDS011;11608;50.894;5.296;2023-05-21T01:44:14;28.98;;;26.75;;
22881;SDS011;11608;50.894;5.296;2023-05-21T01:46:42;28.70;;;26.40;;
22881;SDS011;11608;50.894;5.296;2023-05-21T01:49:09;30.65;;;28.30;;
22881;SDS011;11608;50.894;5.296;2023-05-21T01:51:36;28.80;;;26.48;;
22881;SDS011;11608;50.894;5.296;2023-05-21T01:54:02;27.85;;;25.75;;
22881;SDS011;11608;50.894;5.296;2023-05-21T01:56:28;28.00;;;25.88;;
22881;SDS011;11608;50.894;5.296;2023-05-21T01:58:58;28.75;;;26.17;;
22881;SDS011;11608;50.894;5.296;2023-05-21T02:01:24;28.25;;;26.15;;
22881;SDS011;11608;50.894;5.296;2023-05-21T02:03:50;27.58;;;25.42;;
22881;SDS011;11608;50.894;5.296;2023-05-21T02:06:16;28.60;;;26.33;;
22881;SDS011;11608;50.894;5.296;2023-05-21T02:08:43;29.38;;;26.90;;
22881;SDS011;11608;50.894;5.296;2023-05-21T02:11:09;29.63;;;27.23;;
22881;SDS011;11608;50.894;5.296;2023-05-21T02:13:36;29.65;;;27.45;;
22881;SDS011;11608;50.894;5.296;2023-05-21T02:16:06;29.42;;;27.13;;
22881;SDS011;11608;50.894;5.296;2023-05-21T02:18:35;29.02;;;26.63;;
22881;SDS011;11608;50.894;5.296;2023-05-21T02:21:02;29.20;;;26.85;;
22881;SDS011;11608;50.894;5.296;2023-05-21T02:23:28;30.10;;;27.55;;
22881;SDS011;11608;50.894;5.296;2023-05-21T02:25:54;29.70;;;27.48;;
22881;SDS011;11608;50.894;5.296;2023-05-21T02:28:20;28.83;;;26.33;;
22881;SDS011;11608;50.894;5.296;2023-05-21T02:30:46;28.88;;;26.65;;
22881;SDS011;11608;50.894;5.296;2023-05-21T02:33:13;28.95;;;26.65;;
22881;SDS011;11608;50.894;5.296;2023-05-21T02:35:39;28.73;;;26.40;;
22881;SDS011;11608;50.894;5.296;2023-05-21T02:38:05;28.08;;;25.88;;
22881;SDS011;11608;50.894;5.296;2023-05-21T02:40:33;27.90;;;25.67;;
22881;SDS011;11608;50.894;5.296;2023-05-21T02:42:59;29.27;;;26.98;;
22881;SDS011;11608;50.894;5.296;2023-05-21T02:45:25;29.42;;;27.15;;
22881;SDS011;11608;50.894;5.296;2023-05-21T02:47:51;29.23;;;26.83;;
22881;SDS011;11608;50.894;5.296;2023-05-21T02:50:17;28.88;;;26.48;;
22881;SDS011;11608;50.894;5.296;2023-05-21T02:52:43;29.33;;;26.92;;
22881;SDS011;11608;50.894;5.296;2023-05-21T02:55:10;28.85;;;26.73;;
22881;SDS011;11608;50.894;5.296;2023-05-21T02:57:36;28.60;;;26.40;;
22881;SDS011;11608;50.894;5.296;2023-05-21T03:00:02;28.83;;;26.63;;
22881;SDS011;11608;50.894;5.296;2023-05-21T03:02:32;28.88;;;26.65;;
22881;SDS011;11608;50.894;5.296;2023-05-21T03:04:58;29.05;;;26.85;;
22881;SDS011;11608;50.894;5.296;2023-05-21T03:07:24;29.00;;;26.77;;
22881;SDS011;11608;50.894;5.296;2023-05-21T03:09:50;29.10;;;26.80;;
22881;SDS011;11608;50.894;5.296;2023-05-21T03:12:16;28.40;;;26.30;;
22881;SDS011;11608;50.894;5.296;2023-05-21T03:14:42;28.15;;;25.67;;
22881;SDS011;11608;50.894;5.296;2023-05-21T03:17:12;27.80;;;25.63;;
22881;SDS011;11608;50.894;5.296;2023-05-21T03:19:39;28.08;;;25.83;;
22881;SDS011;11608;50.894;5.296;2023-05-21T03:22:05;29.08;;;26.88;;
22881;SDS011;11608;50.894;5.296;2023-05-21T03:24:31;28.25;;;25.98;;
22881;SDS011;11608;50.894;5.296;2023-05-21T03:26:58;28.70;;;26.50;;
22881;SDS011;11608;50.894;5.296;2023-05-21T03:29:27;28.45;;;26.10;;
22881;SDS011;11608;50.894;5.296;2023-05-21T03:31:53;28.70;;;26.02;;
22881;SDS011;11608;50.894;5.296;2023-05-21T03:34:19;28.63;;;26.42;;
22881;SDS011;11608;50.894;5.296;2023-05-21T03:36:46;27.77;;;25.67;;
22881;SDS011;11608;50.894;5.296;2023-05-21T03:39:12;28.77;;;26.48;;
22881;SDS011;11608;50.894;5.296;2023-05-21T03:41:38;28.80;;;26.55;;
22881;SDS011;11608;50.894;5.296;2023-05-21T03:44:07;29.17;;;26.83;;
22881;SDS011;11608;50.894;5.296;2023-05-21T03:46:33;29.70;;;26.80;;
22881;SDS011;11608;50.894;5.296;2023-05-21T03:49:00;29.63;;;27.27;;
22881;SDS011;11608;50.894;5.296;2023-05-21T03:51:26;29.15;;;26.95;;
22881;SDS011;11608;50.894;5.296;2023-05-21T03:53:56;28.45;;;26.35;;
22881;SDS011;11608;50.894;5.296;2023-05-21T03:56:22;28.55;;;26.35;;
22881;SDS011;11608;50.894;5.296;2023-05-21T03:58:48;28.63;;;26.13;;
22881;SDS011;11608;50.894;5.296;2023-05-21T04:01:15;29.73;;;27.02;;
22881;SDS011;11608;50.894;5.296;2023-05-21T04:03:41;29.38;;;27.08;;
22881;SDS011;11608;50.894;5.296;2023-05-21T04:06:08;27.85;;;25.60;;
22881;SDS011;11608;50.894;5.296;2023-05-21T04:08:34;28.88;;;26.27;;
22881;SDS011;11608;50.894;5.296;2023-05-21T04:11:01;28.80;;;26.33;;
22881;SDS011;11608;50.894;5.296;2023-05-21T04:13:27;28.92;;;26.52;;
22881;SDS011;11608;50.894;5.296;2023-05-21T04:15:54;27.98;;;25.77;;
22881;SDS011;11608;50.894;5.296;2023-05-21T04:18:20;28.60;;;26.40;;
22881;SDS011;11608;50.894;5.296;2023-05-21T04:20:48;30.20;;;27.33;;
22881;SDS011;11608;50.894;5.296;2023-05-21T04:23:14;28.63;;;26.42;;
22881;SDS011;11608;50.894;5.296;2023-05-21T04:25:40;28.48;;;26.23;;
22881;SDS011;11608;50.894;5.296;2023-05-21T04:28:06;28.92;;;26.52;;
22881;SDS011;11608;50.894;5.296;2023-05-21T04:30:32;28.35;;;25.85;;
22881;SDS011;11608;50.894;5.296;2023-05-21T04:33:01;28.42;;;26.23;;
22881;SDS011;11608;50.894;5.296;2023-05-21T04:35:27;29.00;;;26.63;;
22881;SDS011;11608;50.894;5.296;2023-05-21T04:37:53;28.52;;;26.30;;
22881;SDS011;11608;50.894;5.296;2023-05-21T04:40:20;29.00;;;26.48;;
22881;SDS011;11608;50.894;5.296;2023-05-21T04:42:48;27.92;;;25.63;;
22881;SDS011;11608;50.894;5.296;2023-05-21T04:45:15;27.90;;;25.52;;
22881;SDS011;11608;50.894;5.296;2023-05-21T04:47:42;28.65;;;26.25;;
22881;SDS011;11608;50.894;5.296;2023-05-21T04:50:08;28.35;;;25.83;;
22881;SDS011;11608;50.894;5.296;2023-05-21T04:52:35;28.35;;;25.98;;
22881;SDS011;11608;50.894;5.296;2023-05-21T04:55:01;27.55;;;25.45;;
22881;SDS011;11608;50.894;5.296;2023-05-21T04:57:30;27.40;;;25.20;;
22881;SDS011;11608;50.894;5.296;2023-05-21T04:59:56;26.95;;;24.95;;
22881;SDS011;11608;50.894;5.296;2023-05-21T05:02:22;27.85;;;25.65;;
22881;SDS011;11608;50.894;5.296;2023-05-21T05:04:48;28.08;;;25.92;;
22881;SDS011;11608;50.894;5.296;2023-05-21T05:07:14;27.67;;;25.48;;
22881;SDS011;11608;50.894;5.296;2023-05-21T05:09:40;27.88;;;25.77;;
22881;SDS011;11608;50.894;5.296;2023-05-21T05:12:06;28.45;;;26.02;;
22881;SDS011;11608;50.894;5.296;2023-05-21T05:14:32;28.63;;;26.35;;
22881;SDS011;11608;50.894;5.296;2023-05-21T05:17:01;28.45;;;26.15;;
22881;SDS011;11608;50.894;5.296;2023-05-21T05:19:27;27.40;;;25.30;;
22881;SDS011;11608;50.894;5.296;2023-05-21T05:21:53;29.45;;;27.05;;
22881;SDS011;11608;50.894;5.296;2023-05-21T05:24:19;28.02;;;25.67;;
22881;SDS011;11608;50.894;5.296;2023-05-21T05:26:45;28.42;;;26.27;;
22881;SDS011;11608;50.894;5.296;2023-05-21T05:29:11;28.60;;;26.25;;
22881;SDS011;11608;50.894;5.296;2023-05-21T05:31:37;28.42;;;25.85;;
22881;SDS011;11608;50.894;5.296;2023-05-21T05:34:03;28.50;;;26.25;;
22881;SDS011;11608;50.894;5.296;2023-05-21T05:36:29;28.17;;;25.98;;
22881;SDS011;11608;50.894;5.296;2023-05-21T05:38:56;28.67;;;26.48;;
22881;SDS011;11608;50.894;5.296;2023-05-21T05:41:22;28.05;;;25.88;;
22881;SDS011;11608;50.894;5.296;2023-05-21T05:43:50;27.90;;;25.60;;
22881;SDS011;11608;50.894;5.296;2023-05-21T05:46:17;27.95;;;25.85;;
22881;SDS011;11608;50.894;5.296;2023-05-21T05:48:43;28.83;;;26.58;;
22881;SDS011;11608;50.894;5.296;2023-05-21T05:51:09;27.33;;;25.17;;
22881;SDS011;11608;50.894;5.296;2023-05-21T05:53:36;29.40;;;27.23;;
22881;SDS011;11608;50.894;5.296;2023-05-21T05:56:02;29.05;;;26.73;;
22881;SDS011;11608;50.894;5.296;2023-05-21T05:58:31;28.10;;;25.80;;
22881;SDS011;11608;50.894;5.296;2023-05-21T06:00:57;27.95;;;25.70;;
22881;SDS011;11608;50.894;5.296;2023-05-21T06:03:23;28.08;;;25.88;;
22881;SDS011;11608;50.894;5.296;2023-05-21T06:05:49;29.42;;;26.60;;
22881;SDS011;11608;50.894;5.296;2023-05-21T06:08:15;28.10;;;26.00;;
22881;SDS011;11608;50.894;5.296;2023-05-21T06:10:41;27.90;;;25.58;;
22881;SDS011;11608;50.894;5.296;2023-05-21T06:13:07;27.83;;;25.80;;
22881;SDS011;11608;50.894;5.296;2023-05-21T06:15:33;27.58;;;25.58;;
22881;SDS011;11608;50.894;5.296;2023-05-21T06:17:59;27.92;;;25.73;;
22881;SDS011;11608;50.894;5.296;2023-05-21T06:20:25;28.15;;;26.10;;
22881;SDS011;11608;50.894;5.296;2023-05-21T06:22:52;27.10;;;25.00;;
22881;SDS011;11608;50.894;5.296;2023-05-21T06:25:18;27.83;;;25.63;;
22881;SDS011;11608;50.894;5.296;2023-05-21T06:27:44;27.90;;;25.90;;
22881;SDS011;11608;50.894;5.296;2023-05-21T06:30:12;28.48;;;26.38;;
22881;SDS011;11608;50.894;5.296;2023-05-21T06:32:38;28.67;;;26.27;;
22881;SDS011;11608;50.894;5.296;2023-05-21T06:35:04;27.75;;;25.52;;
22881;SDS011;11608;50.894;5.296;2023-05-21T06:37:30;27.73;;;25.52;;
22881;SDS011;11608;50.894;5.296;2023-05-21T06:39:56;27.77;;;25.65;;
22881;SDS011;11608;50.894;5.296;2023-05-21T06:42:22;27.70;;;25.70;;
22881;SDS011;11608;50.894;5.296;2023-05-21T06:44:49;26.75;;;24.75;;
22881;SDS011;11608;50.894;5.296;2023-05-21T06:47:15;27.15;;;25.02;;
22881;SDS011;11608;50.894;5.296;2023-05-21T06:49:41;25.75;;;23.67;;
22881;SDS011;11608;50.894;5.296;2023-05-21T06:52:07;26.75;;;24.75;;
22881;SDS011;11608;50.894;5.296;2023-05-21T06:54:33;27.98;;;25.67;;
22881;SDS011;11608;50.894;5.296;2023-05-21T06:56:59;27.15;;;25.00;;
22881;SDS011;11608;50.894;5.296;2023-05-21T06:59:25;27.52;;;25.35;;
22881;SDS011;11608;50.894;5.296;2023-05-21T07:01:51;26.92;;;24.83;;
22881;SDS011;11608;50.894;5.296;2023-05-21T07:04:17;27.05;;;25.05;;
22881;SDS011;11608;50.894;5.296;2023-05-21T07:06:43;28.25;;;25.85;;
22881;SDS011;11608;50.894;5.296;2023-05-21T07:09:09;27.30;;;25.15;;
22881;SDS011;11608;50.894;5.296;2023-05-21T07:11:36;26.10;;;24.08;;
22881;SDS011;11608;50.894;5.296;2023-05-21T07:14:02;26.77;;;24.77;;
22881;SDS011;11608;50.894;5.296;2023-05-21T07:16:28;28.70;;;26.38;;
22881;SDS011;11608;50.894;5.296;2023-05-21T07:18:54;28.67;;;26.38;;
22881;SDS011;11608;50.894;5.296;2023-05-21T07:21:20;28.83;;;26.35;;
22881;SDS011;11608;50.894;5.296;2023-05-21T07:23:46;27.08;;;24.98;;
22881;SDS011;11608;50.894;5.296;2023-05-21T07:26:13;27.80;;;25.55;;
22881;SDS011;11608;50.894;5.296;2023-05-21T07:28:39;27.70;;;25.50;;
22881;SDS011;11608;50.894;5.296;2023-05-21T07:31:05;27.35;;;25.27;;
22881;SDS011;11608;50.894;5.296;2023-05-21T07:33:32;27.65;;;25.60;;
22881;SDS011;11608;50.894;5.296;2023-05-21T07:35:58;27.10;;;25.02;;
22881;SDS011;11608;50.894;5.296;2023-05-21T07:38:24;27.92;;;25.65;;
22881;SDS011;11608;50.894;5.296;2023-05-21T07:40:50;28.38;;;26.02;;
22881;SDS011;11608;50.894;5.296;2023-05-21T07:43:16;26.83;;;24.73;;
22881;SDS011;11608;50.894;5.296;2023-05-21T07:45:42;27.10;;;25.00;;
22881;SDS011;11608;50.894;5.296;2023-05-21T07:48:08;27.77;;;25.75;;
22881;SDS011;11608;50.894;5.296;2023-05-21T07:50:35;28.33;;;26.23;;
22881;SDS011;11608;50.894;5.296;2023-05-21T07:53:01;27.40;;;25.17;;
22881;SDS011;11608;50.894;5.296;2023-05-21T07:55:28;26.67;;;24.48;;
22881;SDS011;11608;50.894;5.296;2023-05-21T07:57:54;28.00;;;25.80;;
22881;SDS011;11608;50.894;5.296;2023-05-21T08:00:22;27.92;;;25.77;;
22881;SDS011;11608;50.894;5.296;2023-05-21T08:02:51;28.73;;;26.52;;
22881;SDS011;11608;50.894;5.296;2023-05-21T08:05:17;27.00;;;25.10;;
22881;SDS011;11608;50.894;5.296;2023-05-21T08:07:46;27.15;;;24.95;;
22881;SDS011;11608;50.894;5.296;2023-05-21T08:10:12;27.98;;;25.67;;
22881;SDS011;11608;50.894;5.296;2023-05-21T08:12:38;28.17;;;25.95;;
22881;SDS011;11608;50.894;5.296;2023-05-21T08:15:04;28.20;;;26.00;;
22881;SDS011;11608;50.894;5.296;2023-05-21T08:17:30;28.75;;;26.65;;
22881;SDS011;11608;50.894;5.296;2023-05-21T08:19:56;29.05;;;26.80;;
22881;SDS011;11608;50.894;5.296;2023-05-21T08:22:22;28.63;;;26.23;;
22881;SDS011;11608;50.894;5.296;2023-05-21T08:24:48;27.75;;;25.65;;
22881;SDS011;11608;50.894;5.296;2023-05-21T08:27:14;30.27;;;27.83;;
22881;SDS011;11608;50.894;5.296;2023-05-21T08:29:41;28.17;;;25.98;;
22881;SDS011;11608;50.894;5.296;2023-05-21T08:32:07;29.33;;;27.02;;
22881;SDS011;11608;50.894;5.296;2023-05-21T08:34:33;30.10;;;27.60;;
22881;SDS011;11608;50.894;5.296;2023-05-21T08:37:00;29.80;;;27.48;;
22881;SDS011;11608;50.894;5.296;2023-05-21T08:39:26;28.98;;;26.85;;
22881;SDS011;11608;50.894;5.296;2023-05-21T08:41:53;29.25;;;27.05;;
22881;SDS011;11608;50.894;5.296;2023-05-21T08:44:22;28.88;;;26.70;;
22881;SDS011;11608;50.894;5.296;2023-05-21T08:46:50;28.08;;;25.98;;
22881;SDS011;11608;50.894;5.296;2023-05-21T08:49:17;29.48;;;27.17;;
22881;SDS011;11608;50.894;5.296;2023-05-21T08:51:45;29.35;;;27.05;;
22881;SDS011;11608;50.894;5.296;2023-05-21T08:54:11;29.83;;;27.38;;
22881;SDS011;11608;50.894;5.296;2023-05-21T08:56:37;29.90;;;27.58;;
22881;SDS011;11608;50.894;5.296;2023-05-21T08:59:09;29.17;;;26.65;;
22881;SDS011;11608;50.894;5.296;2023-05-21T09:01:38;29.02;;;26.77;;
22881;SDS011;11608;50.894;5.296;2023-05-21T09:04:06;28.02;;;25.83;;
22881;SDS011;11608;50.894;5.296;2023-05-21T09:06:32;29.08;;;26.77;;
22881;SDS011;11608;50.894;5.296;2023-05-21T09:09:03;30.23;;;27.73;;
22881;SDS011;11608;50.894;5.296;2023-05-21T09:11:31;29.08;;;26.88;;
22881;SDS011;11608;50.894;5.296;2023-05-21T09:13:57;28.60;;;26.38;;
22881;SDS011;11608;50.894;5.296;2023-05-21T09:16:24;29.67;;;27.17;;
22881;SDS011;11608;50.894;5.296;2023-05-21T09:18:50;28.05;;;25.95;;
22881;SDS011;11608;50.894;5.296;2023-05-21T09:21:23;28.55;;;26.23;;
22881;SDS011;11608;50.894;5.296;2023-05-21T09:23:55;28.92;;;26.73;;
22881;SDS011;11608;50.894;5.296;2023-05-21T09:26:22;28.70;;;26.17;;
22881;SDS011;11608;50.894;5.296;2023-05-21T09:28:48;29.67;;;27.30;;
22881;SDS011;11608;50.894;5.296;2023-05-21T09:31:17;28.52;;;26.13;;
22881;SDS011;11608;50.894;5.296;2023-05-21T09:33:46;29.38;;;26.83;;
22881;SDS011;11608;50.894;5.296;2023-05-21T09:36:12;28.30;;;26.02;;
22881;SDS011;11608;50.894;5.296;2023-05-21T09:38:38;28.70;;;26.30;;
22881;SDS011;11608;50.894;5.296;2023-05-21T09:41:04;28.17;;;25.83;;
22881;SDS011;11608;50.894;5.296;2023-05-21T09:43:31;28.58;;;26.08;;
22881;SDS011;11608;50.894;5.296;2023-05-21T09:45:58;30.02;;;27.65;;
22881;SDS011;11608;50.894;5.296;2023-05-21T09:51:17;29.17;;;26.80;;
22881;SDS011;11608;50.894;5.296;2023-05-21T09:56:09;28.52;;;26.25;;
22881;SDS011;11608;50.894;5.296;2023-05-21T09:58:36;28.02;;;25.75;;
22881;SDS011;11608;50.894;5.296;2023-05-21T10:01:03;27.90;;;25.50;;
22881;SDS011;11608;50.894;5.296;2023-05-21T10:03:32;27.75;;;25.55;;
22881;SDS011;11608;50.894;5.296;2023-05-21T10:05:58;29.13;;;26.73;;
22881;SDS011;11608;50.894;5.296;2023-05-21T10:08:25;29.75;;;27.20;;
22881;SDS011;11608;50.894;5.296;2023-05-21T10:10:51;30.45;;;27.80;;
22881;SDS011;11608;50.894;5.296;2023-05-21T10:13:17;28.55;;;26.33;;
22881;SDS011;11608;50.894;5.296;2023-05-21T10:15:47;29.27;;;26.85;;
22881;SDS011;11608;50.894;5.296;2023-05-21T10:18:14;29.88;;;27.35;;
22881;SDS011;11608;50.894;5.296;2023-05-21T10:20:42;29.80;;;27.55;;
22881;SDS011;11608;50.894;5.296;2023-05-21T10:23:08;29.85;;;27.45;;
22881;SDS011;11608;50.894;5.296;2023-05-21T10:25:34;29.70;;;27.10;;
22881;SDS011;11608;50.894;5.296;2023-05-21T10:28:00;29.30;;;26.90;;
22881;SDS011;11608;50.894;5.296;2023-05-21T10:30:27;30.27;;;27.77;;
22881;SDS011;11608;50.894;5.296;2023-05-21T10:32:54;28.73;;;26.13;;
22881;SDS011;11608;50.894;5.296;2023-05-21T10:35:21;30.65;;;28.08;;
22881;SDS011;11608;50.894;5.296;2023-05-21T10:37:47;30.25;;;27.65;;
22881;SDS011;11608;50.894;5.296;2023-05-21T10:40:13;28.23;;;25.83;;
22881;SDS011;11608;50.894;5.296;2023-05-21T10:48:09;30.80;;;28.25;;
22881;SDS011;11608;50.894;5.296;2023-05-21T10:53:24;31.00;;;28.42;;
22881;SDS011;11608;50.894;5.296;2023-05-21T10:55:59;30.60;;;28.15;;
22881;SDS011;11608;50.894;5.296;2023-05-21T11:01:08;31.98;;;28.90;;
22881;SDS011;11608;50.894;5.296;2023-05-21T11:03:35;31.00;;;28.42;;
22881;SDS011;11608;50.894;5.296;2023-05-21T11:06:01;31.85;;;28.95;;
22881;SDS011;11608;50.894;5.296;2023-05-21T11:08:30;31.42;;;28.63;;
22881;SDS011;11608;50.894;5.296;2023-05-21T11:10:59;30.80;;;28.25;;
22881;SDS011;11608;50.894;5.296;2023-05-21T11:13:26;29.83;;;27.23;;
22881;SDS011;11608;50.894;5.296;2023-05-21T11:21:04;32.40;;;29.55;;
22881;SDS011;11608;50.894;5.296;2023-05-21T11:26:15;32.58;;;29.70;;
22881;SDS011;11608;50.894;5.296;2023-05-21T11:28:41;30.88;;;28.38;;
22881;SDS011;11608;50.894;5.296;2023-05-21T11:31:23;30.63;;;27.92;;
22881;SDS011;11608;50.894;5.296;2023-05-21T11:36:35;31.27;;;28.35;;
22881;SDS011;11608;50.894;5.296;2023-05-21T11:39:17;31.20;;;28.58;;
22881;SDS011;11608;50.894;5.296;2023-05-21T11:41:55;31.23;;;28.48;;
22881;SDS011;11608;50.894;5.296;2023-05-21T11:47:09;30.55;;;28.05;;
22881;SDS011;11608;50.894;5.296;2023-05-21T11:49:36;32.28;;;29.45;;
22881;SDS011;11608;50.894;5.296;2023-05-21T11:52:03;31.33;;;28.65;;
22881;SDS011;11608;50.894;5.296;2023-05-21T11:54:30;31.70;;;28.80;;
22881;SDS011;11608;50.894;5.296;2023-05-21T11:56:58;33.45;;;30.55;;
22881;SDS011;11608;50.894;5.296;2023-05-21T11:59:27;32.22;;;29.27;;
22881;SDS011;11608;50.894;5.296;2023-05-21T12:01:53;33.55;;;30.67;;
22881;SDS011;11608;50.894;5.296;2023-05-21T12:04:20;32.83;;;29.92;;
22881;SDS011;11608;50.894;5.296;2023-05-21T12:06:46;30.95;;;28.30;;
22881;SDS011;11608;50.894;5.296;2023-05-21T12:09:14;31.73;;;29.02;;
22881;SDS011;11608;50.894;5.296;2023-05-21T12:11:40;30.48;;;27.88;;
22881;SDS011;11608;50.894;5.296;2023-05-21T12:14:07;30.58;;;27.98;;
22881;SDS011;11608;50.894;5.296;2023-05-21T12:16:35;32.55;;;29.63;;
22881;SDS011;11608;50.894;5.296;2023-05-21T12:19:01;32.38;;;29.40;;
22881;SDS011;11608;50.894;5.296;2023-05-21T12:21:31;30.77;;;28.30;;
22881;SDS011;11608;50.894;5.296;2023-05-21T12:23:57;31.67;;;29.25;;
22881;SDS011;11608;50.894;5.296;2023-05-21T12:26:23;32.03;;;29.17;;
22881;SDS011;11608;50.894;5.296;2023-05-21T12:28:53;32.53;;;29.67;;
22881;SDS011;11608;50.894;5.296;2023-05-21T12:31:19;32.05;;;29.45;;
22881;SDS011;11608;50.894;5.296;2023-05-21T12:33:51;31.67;;;28.88;;
22881;SDS011;11608;50.894;5.296;2023-05-21T12:36:35;32.70;;;29.88;;
22881;SDS011;11608;50.894;5.296;2023-05-21T12:39:02;31.45;;;28.65;;
22881;SDS011;11608;50.894;5.296;2023-05-21T12:41:28;31.38;;;28.70;;
22881;SDS011;11608;50.894;5.296;2023-05-21T12:43:54;31.40;;;28.70;;
22881;SDS011;11608;50.894;5.296;2023-05-21T12:46:20;31.27;;;28.17;;
22881;SDS011;11608;50.894;5.296;2023-05-21T12:48:48;30.25;;;27.85;;
22881;SDS011;11608;50.894;5.296;2023-05-21T12:51:15;31.25;;;28.55;;
22881;SDS011;11608;50.894;5.296;2023-05-21T12:53:41;32.92;;;29.83;;
22881;SDS011;11608;50.894;5.296;2023-05-21T12:56:10;32.90;;;29.92;;
22881;SDS011;11608;50.894;5.296;2023-05-21T12:58:37;32.95;;;29.90;;
22881;SDS011;11608;50.894;5.296;2023-05-21T13:03:32;30.05;;;27.55;;
22881;SDS011;11608;50.894;5.296;2023-05-21T13:05:58;31.52;;;28.77;;
22881;SDS011;11608;50.894;5.296;2023-05-21T13:08:25;31.85;;;29.02;;
22881;SDS011;11608;50.894;5.296;2023-05-21T13:10:51;31.95;;;29.05;;
22881;SDS011;11608;50.894;5.296;2023-05-21T13:13:17;31.48;;;28.48;;
22881;SDS011;11608;50.894;5.296;2023-05-21T13:15:43;32.28;;;29.35;;
22881;SDS011;11608;50.894;5.296;2023-05-21T13:18:09;31.63;;;28.77;;
22881;SDS011;11608;50.894;5.296;2023-05-21T13:20:39;30.98;;;28.25;;
22881;SDS011;11608;50.894;5.296;2023-05-21T13:23:05;31.42;;;28.67;;
22881;SDS011;11608;50.894;5.296;2023-05-21T13:25:31;32.47;;;29.75;;
22881;SDS011;11608;50.894;5.296;2023-05-21T13:27:59;32.83;;;29.58;;
22881;SDS011;11608;50.894;5.296;2023-05-21T13:30:26;31.63;;;28.80;;
22881;SDS011;11608;50.894;5.296;2023-05-21T13:32:52;30.90;;;28.08;;
22881;SDS011;11608;50.894;5.296;2023-05-21T13:35:18;30.85;;;28.13;;
22881;SDS011;11608;50.894;5.296;2023-05-21T13:37:44;31.25;;;28.48;;
22881;SDS011;11608;50.894;5.296;2023-05-21T13:40:10;31.20;;;28.40;;
22881;SDS011;11608;50.894;5.296;2023-05-21T13:42:40;30.98;;;28.27;;
22881;SDS011;11608;50.894;5.296;2023-05-21T13:45:07;30.42;;;27.77;;
22881;SDS011;11608;50.894;5.296;2023-05-21T13:47:34;32.00;;;28.80;;
22881;SDS011;11608;50.894;5.296;2023-05-21T13:50:00;29.95;;;27.45;;
22881;SDS011;11608;50.894;5.296;2023-05-21T13:52:26;31.15;;;28.25;;
22881;SDS011;11608;50.894;5.296;2023-05-21T13:54:52;31.48;;;28.80;;
22881;SDS011;11608;50.894;5.296;2023-05-21T13:57:18;31.20;;;28.30;;
22881;SDS011;11608;50.894;5.296;2023-05-21T13:59:44;31.83;;;29.15;;
22881;SDS011;11608;50.894;5.296;2023-05-21T14:02:10;31.52;;;28.45;;
22881;SDS011;11608;50.894;5.296;2023-05-21T14:04:37;30.15;;;27.48;;
22881;SDS011;11608;50.894;5.296;2023-05-21T14:07:03;30.83;;;28.10;;
22881;SDS011;11608;50.894;5.296;2023-05-21T14:09:29;31.20;;;28.60;;
22881;SDS011;11608;50.894;5.296;2023-05-21T14:11:55;30.90;;;28.30;;
22881;SDS011;11608;50.894;5.296;2023-05-21T14:14:22;30.85;;;28.05;;
22881;SDS011;11608;50.894;5.296;2023-05-21T14:16:49;30.83;;;28.13;;
22881;SDS011;11608;50.894;5.296;2023-05-21T14:19:15;30.73;;;28.00;;
22881;SDS011;11608;50.894;5.296;2023-05-21T14:21:41;29.65;;;27.13;;
22881;SDS011;11608;50.894;5.296;2023-05-21T14:24:07;28.98;;;26.55;;
22881;SDS011;11608;50.894;5.296;2023-05-21T14:26:33;31.10;;;28.50;;
22881;SDS011;11608;50.894;5.296;2023-05-21T14:29:00;30.33;;;27.83;;
22881;SDS011;11608;50.894;5.296;2023-05-21T14:31:26;30.58;;;28.15;;
22881;SDS011;11608;50.894;5.296;2023-05-21T14:33:52;29.83;;;27.20;;
22881;SDS011;11608;50.894;5.296;2023-05-21T14:36:19;31.60;;;28.90;;
22881;SDS011;11608;50.894;5.296;2023-05-21T14:38:45;29.45;;;26.95;;
22881;SDS011;11608;50.894;5.296;2023-05-21T14:41:11;30.17;;;27.50;;
22881;SDS011;11608;50.894;5.296;2023-05-21T14:43:37;31.73;;;28.85;;
22881;SDS011;11608;50.894;5.296;2023-05-21T14:46:03;31.45;;;28.45;;
22881;SDS011;11608;50.894;5.296;2023-05-21T14:48:29;31.05;;;28.50;;
22881;SDS011;11608;50.894;5.296;2023-05-21T14:50:55;31.05;;;28.45;;
22881;SDS011;11608;50.894;5.296;2023-05-21T14:53:21;30.15;;;27.65;;